sensor_id;sensor_type;location;lat;lon;timestamp;P1;durP1;ratioP1;P2;durP2;ratioP2
76604;SDS011;73179;50.978;16.998;2023-10-13T00:02:09;14.45;;;8.15;;
76604;SDS011;73179;50.978;16.998;2023-10-13T00:04:36;15.98;;;8.85;;
76604;SDS011;73179;50.978;16.998;2023-10-13T00:07:02;21.80;;;10.88;;
76604;SDS011;73179;50.978;16.998;2023-10-13T00:09:30;10.65;;;8.35;;
76604;SDS011;73179;50.978;16.998;2023-10-13T00:12:03;24.50;;;11.52;;
76604;SDS011;73179;50.978;16.998;2023-10-13T00:14:34;21.80;;;10.15;;
76604;SDS011;73179;50.978;16.998;2023-10-13T00:17:01;18.05;;;9.07;;
76604;SDS011;73179;50.978;16.998;2023-10-13T00:19:34;20.27;;;8.57;;
76604;SDS011;73179;50.978;16.998;2023-10-13T00:22:13;12.52;;;8.23;;
76604;SDS011;73179;50.978;16.998;2023-10-13T00:24:42;18.92;;;9.20;;
76604;SDS011;73179;50.978;16.998;2023-10-13T00:27:13;15.35;;;9.70;;
76604;SDS011;73179;50.978;16.998;2023-10-13T00:30:00;16.40;;;10.52;;
76604;SDS011;73179;50.978;16.998;2023-10-13T00:32:43;17.15;;;8.50;;
76604;SDS011;73179;50.978;16.998;2023-10-13T00:35:12;15.93;;;8.82;;
76604;SDS011;73179;50.978;16.998;2023-10-13T00:37:53;16.60;;;8.07;;
76604;SDS011;73179;50.978;16.998;2023-10-13T00:40:22;12.75;;;8.25;;
76604;SDS011;73179;50.978;16.998;2023-10-13T00:42:58;10.90;;;6.93;;
76604;SDS011;73179;50.978;16.998;2023-10-13T00:45:43;13.60;;;7.50;;
76604;SDS011;73179;50.978;16.998;2023-10-13T00:48:13;9.57;;;7.05;;
76604;SDS011;73179;50.978;16.998;2023-10-13T00:50:41;11.50;;;7.82;;
76604;SDS011;73179;50.978;16.998;2023-10-13T00:53:11;16.40;;;8.50;;
76604;SDS011;73179;50.978;16.998;2023-10-13T00:55:37;12.75;;;7.40;;
76604;SDS011;73179;50.978;16.998;2023-10-13T00:58:07;11.63;;;7.28;;
76604;SDS011;73179;50.978;16.998;2023-10-13T01:00:38;11.57;;;7.43;;
76604;SDS011;73179;50.978;16.998;2023-10-13T01:03:13;14.27;;;7.93;;
76604;SDS011;73179;50.978;16.998;2023-10-13T01:05:39;12.20;;;7.35;;
76604;SDS011;73179;50.978;16.998;2023-10-13T01:08:07;11.80;;;7.20;;
76604;SDS011;73179;50.978;16.998;2023-10-13T01:10:36;14.68;;;8.07;;
76604;SDS011;73179;50.978;16.998;2023-10-13T01:13:03;11.65;;;8.07;;
76604;SDS011;73179;50.978;16.998;2023-10-13T01:15:29;16.13;;;8.07;;
76604;SDS011;73179;50.978;16.998;2023-10-13T01:18:11;18.20;;;8.27;;
76604;SDS011;73179;50.978;16.998;2023-10-13T01:20:42;15.45;;;8.88;;
76604;SDS011;73179;50.978;16.998;2023-10-13T01:23:12;13.80;;;7.85;;
76604;SDS011;73179;50.978;16.998;2023-10-13T01:25:44;14.00;;;8.02;;
76604;SDS011;73179;50.978;16.998;2023-10-13T01:28:11;13.20;;;7.43;;
76604;SDS011;73179;50.978;16.998;2023-10-13T01:30:43;11.38;;;8.15;;
76604;SDS011;73179;50.978;16.998;2023-10-13T01:33:19;10.98;;;7.20;;
76604;SDS011;73179;50.978;16.998;2023-10-13T01:35:57;14.18;;;8.52;;
76604;SDS011;73179;50.978;16.998;2023-10-13T01:38:25;18.20;;;10.07;;
76604;SDS011;73179;50.978;16.998;2023-10-13T01:40:52;18.13;;;11.30;;
76604;SDS011;73179;50.978;16.998;2023-10-13T01:43:18;20.35;;;10.68;;
76604;SDS011;73179;50.978;16.998;2023-10-13T01:45:45;15.68;;;10.20;;
76604;SDS011;73179;50.978;16.998;2023-10-13T01:48:15;23.17;;;10.27;;
76604;SDS011;73179;50.978;16.998;2023-10-13T01:50:46;15.05;;;10.68;;
76604;SDS011;73179;50.978;16.998;2023-10-13T01:53:25;17.42;;;10.57;;
76604;SDS011;73179;50.978;16.998;2023-10-13T01:55:54;22.25;;;11.63;;
76604;SDS011;73179;50.978;16.998;2023-10-13T01:58:23;14.45;;;10.07;;
76604;SDS011;73179;50.978;16.998;2023-10-13T02:00:51;15.20;;;9.68;;
76604;SDS011;73179;50.978;16.998;2023-10-13T02:03:18;19.60;;;10.90;;
76604;SDS011;73179;50.978;16.998;2023-10-13T02:05:47;19.67;;;11.57;;
76604;SDS011;73179;50.978;16.998;2023-10-13T02:08:15;20.50;;;12.43;;
76604;SDS011;73179;50.978;16.998;2023-10-13T02:10:44;15.98;;;11.68;;
76604;SDS011;73179;50.978;16.998;2023-10-13T02:13:12;20.75;;;13.57;;
76604;SDS011;73179;50.978;16.998;2023-10-13T02:15:43;21.90;;;13.43;;
76604;SDS011;73179;50.978;16.998;2023-10-13T02:18:14;21.63;;;13.60;;
76604;SDS011;73179;50.978;16.998;2023-10-13T02:21:08;25.02;;;13.50;;
76604;SDS011;73179;50.978;16.998;2023-10-13T02:23:40;21.65;;;13.55;;
76604;SDS011;73179;50.978;16.998;2023-10-13T02:26:25;22.63;;;13.65;;
76604;SDS011;73179;50.978;16.998;2023-10-13T02:28:58;22.92;;;14.85;;
76604;SDS011;73179;50.978;16.998;2023-10-13T02:31:28;23.77;;;14.90;;
76604;SDS011;73179;50.978;16.998;2023-10-13T02:33:55;24.38;;;14.05;;
76604;SDS011;73179;50.978;16.998;2023-10-13T02:36:21;22.63;;;14.23;;
76604;SDS011;73179;50.978;16.998;2023-10-13T02:38:49;25.48;;;13.40;;
76604;SDS011;73179;50.978;16.998;2023-10-13T02:41:17;21.08;;;12.27;;
76604;SDS011;73179;50.978;16.998;2023-10-13T02:43:51;22.88;;;12.95;;
76604;SDS011;73179;50.978;16.998;2023-10-13T02:46:22;24.17;;;12.13;;
76604;SDS011;73179;50.978;16.998;2023-10-13T02:48:49;30.08;;;13.18;;
76604;SDS011;73179;50.978;16.998;2023-10-13T02:51:27;21.05;;;12.55;;
76604;SDS011;73179;50.978;16.998;2023-10-13T02:54:11;25.63;;;14.27;;
76604;SDS011;73179;50.978;16.998;2023-10-13T02:56:43;25.42;;;14.45;;
76604;SDS011;73179;50.978;16.998;2023-10-13T02:59:16;24.48;;;13.23;;
76604;SDS011;73179;50.978;16.998;2023-10-13T03:01:45;25.42;;;14.30;;
76604;SDS011;73179;50.978;16.998;2023-10-13T03:04:11;21.65;;;13.18;;
76604;SDS011;73179;50.978;16.998;2023-10-13T03:06:38;24.60;;;13.70;;
76604;SDS011;73179;50.978;16.998;2023-10-13T03:09:09;19.70;;;11.18;;
76604;SDS011;73179;50.978;16.998;2023-10-13T03:11:47;16.05;;;11.20;;
76604;SDS011;73179;50.978;16.998;2023-10-13T03:14:23;18.17;;;10.77;;
76604;SDS011;73179;50.978;16.998;2023-10-13T03:16:53;20.58;;;9.90;;
76604;SDS011;73179;50.978;16.998;2023-10-13T03:19:28;17.90;;;10.43;;
76604;SDS011;73179;50.978;16.998;2023-10-13T03:22:03;15.13;;;9.60;;
76604;SDS011;73179;50.978;16.998;2023-10-13T03:24:38;14.90;;;10.15;;
76604;SDS011;73179;50.978;16.998;2023-10-13T03:27:10;20.33;;;10.95;;
76604;SDS011;73179;50.978;16.998;2023-10-13T03:29:38;18.10;;;10.32;;
76604;SDS011;73179;50.978;16.998;2023-10-13T03:32:09;17.42;;;10.38;;
76604;SDS011;73179;50.978;16.998;2023-10-13T03:34:44;15.45;;;9.25;;
76604;SDS011;73179;50.978;16.998;2023-10-13T03:37:26;13.13;;;8.40;;
76604;SDS011;73179;50.978;16.998;2023-10-13T03:40:05;13.10;;;9.55;;
76604;SDS011;73179;50.978;16.998;2023-10-13T03:42:41;14.77;;;8.50;;
76604;SDS011;73179;50.978;16.998;2023-10-13T03:45:07;18.05;;;9.38;;
76604;SDS011;73179;50.978;16.998;2023-10-13T03:47:36;15.63;;;8.73;;
76604;SDS011;73179;50.978;16.998;2023-10-13T03:50:05;15.55;;;8.32;;
76604;SDS011;73179;50.978;16.998;2023-10-13T03:52:40;15.02;;;8.75;;
76604;SDS011;73179;50.978;16.998;2023-10-13T03:55:07;15.90;;;8.85;;
76604;SDS011;73179;50.978;16.998;2023-10-13T03:57:41;15.80;;;9.18;;
76604;SDS011;73179;50.978;16.998;2023-10-13T04:00:08;15.48;;;9.48;;
76604;SDS011;73179;50.978;16.998;2023-10-13T04:02:35;13.05;;;8.60;;
76604;SDS011;73179;50.978;16.998;2023-10-13T04:05:02;16.52;;;9.57;;
76604;SDS011;73179;50.978;16.998;2023-10-13T04:07:35;11.27;;;9.13;;
76604;SDS011;73179;50.978;16.998;2023-10-13T04:10:27;16.38;;;9.77;;
76604;SDS011;73179;50.978;16.998;2023-10-13T04:13:11;16.00;;;9.73;;
76604;SDS011;73179;50.978;16.998;2023-10-13T04:15:56;21.85;;;10.88;;
76604;SDS011;73179;50.978;16.998;2023-10-13T04:18:40;18.90;;;11.43;;
76604;SDS011;73179;50.978;16.998;2023-10-13T04:21:29;16.73;;;11.10;;
76604;SDS011;73179;50.978;16.998;2023-10-13T04:24:10;15.20;;;11.38;;
76604;SDS011;73179;50.978;16.998;2023-10-13T04:26:44;23.88;;;12.38;;
76604;SDS011;73179;50.978;16.998;2023-10-13T04:29:45;21.98;;;12.40;;
76604;SDS011;73179;50.978;16.998;2023-10-13T04:32:14;24.40;;;14.27;;
76604;SDS011;73179;50.978;16.998;2023-10-13T04:34:56;23.88;;;14.15;;
76604;SDS011;73179;50.978;16.998;2023-10-13T04:37:38;22.55;;;14.75;;
76604;SDS011;73179;50.978;16.998;2023-10-13T04:40:17;20.15;;;14.18;;
76604;SDS011;73179;50.978;16.998;2023-10-13T04:42:46;23.55;;;15.02;;
76604;SDS011;73179;50.978;16.998;2023-10-13T04:45:16;27.70;;;13.93;;
76604;SDS011;73179;50.978;16.998;2023-10-13T04:47:58;23.40;;;13.35;;
76604;SDS011;73179;50.978;16.998;2023-10-13T04:50:45;27.77;;;13.88;;
76604;SDS011;73179;50.978;16.998;2023-10-13T04:53:16;21.30;;;13.30;;
76604;SDS011;73179;50.978;16.998;2023-10-13T04:55:59;19.35;;;13.15;;
76604;SDS011;73179;50.978;16.998;2023-10-13T04:58:30;25.90;;;14.27;;
76604;SDS011;73179;50.978;16.998;2023-10-13T05:00:59;30.05;;;14.60;;
76604;SDS011;73179;50.978;16.998;2023-10-13T05:03:44;20.20;;;13.35;;
76604;SDS011;73179;50.978;16.998;2023-10-13T05:06:28;23.33;;;14.68;;
76604;SDS011;73179;50.978;16.998;2023-10-13T05:09:10;25.55;;;15.48;;
76604;SDS011;73179;50.978;16.998;2023-10-13T05:11:56;24.85;;;13.75;;
76604;SDS011;73179;50.978;16.998;2023-10-13T05:14:40;28.23;;;15.27;;
76604;SDS011;73179;50.978;16.998;2023-10-13T05:17:25;29.08;;;15.48;;
76604;SDS011;73179;50.978;16.998;2023-10-13T05:20:09;22.73;;;14.75;;
76604;SDS011;73179;50.978;16.998;2023-10-13T05:22:54;27.77;;;16.88;;
76604;SDS011;73179;50.978;16.998;2023-10-13T05:25:39;29.38;;;17.05;;
76604;SDS011;73179;50.978;16.998;2023-10-13T05:28:23;34.78;;;17.80;;
76604;SDS011;73179;50.978;16.998;2023-10-13T05:31:08;28.55;;;17.20;;
76604;SDS011;73179;50.978;16.998;2023-10-13T05:33:53;29.65;;;17.60;;
76604;SDS011;73179;50.978;16.998;2023-10-13T05:36:38;28.98;;;18.23;;
76604;SDS011;73179;50.978;16.998;2023-10-13T05:39:23;32.72;;;18.48;;
76604;SDS011;73179;50.978;16.998;2023-10-13T05:42:08;29.48;;;17.73;;
76604;SDS011;73179;50.978;16.998;2023-10-13T05:44:52;28.70;;;17.77;;
76604;SDS011;73179;50.978;16.998;2023-10-13T05:47:23;29.25;;;17.45;;
76604;SDS011;73179;50.978;16.998;2023-10-13T05:50:07;29.58;;;20.05;;
76604;SDS011;73179;50.978;16.998;2023-10-13T05:52:49;29.10;;;18.83;;
76604;SDS011;73179;50.978;16.998;2023-10-13T05:55:25;29.00;;;17.95;;
76604;SDS011;73179;50.978;16.998;2023-10-13T05:58:13;24.65;;;17.40;;
76604;SDS011;73179;50.978;16.998;2023-10-13T06:00:58;26.88;;;18.02;;
76604;SDS011;73179;50.978;16.998;2023-10-13T06:03:43;24.60;;;16.35;;
76604;SDS011;73179;50.978;16.998;2023-10-13T06:06:28;27.15;;;17.17;;
76604;SDS011;73179;50.978;16.998;2023-10-13T06:09:13;27.30;;;19.80;;
76604;SDS011;73179;50.978;16.998;2023-10-13T06:11:58;29.13;;;20.38;;
76604;SDS011;73179;50.978;16.998;2023-10-13T06:14:46;31.73;;;18.75;;
76604;SDS011;73179;50.978;16.998;2023-10-13T06:17:31;31.95;;;20.40;;
76604;SDS011;73179;50.978;16.998;2023-10-13T06:20:16;31.98;;;20.08;;
76604;SDS011;73179;50.978;16.998;2023-10-13T06:23:11;32.92;;;19.77;;
76604;SDS011;73179;50.978;16.998;2023-10-13T06:25:57;25.98;;;18.80;;
76604;SDS011;73179;50.978;16.998;2023-10-13T06:28:41;26.45;;;17.80;;
76604;SDS011;73179;50.978;16.998;2023-10-13T06:31:08;24.25;;;17.88;;
76604;SDS011;73179;50.978;16.998;2023-10-13T06:33:46;24.92;;;17.98;;
76604;SDS011;73179;50.978;16.998;2023-10-13T06:36:13;27.88;;;18.60;;
76604;SDS011;73179;50.978;16.998;2023-10-13T06:38:39;24.77;;;16.27;;
76604;SDS011;73179;50.978;16.998;2023-10-13T06:41:06;30.67;;;17.38;;
76604;SDS011;73179;50.978;16.998;2023-10-13T06:45:59;22.02;;;16.83;;
76604;SDS011;73179;50.978;16.998;2023-10-13T06:48:26;26.05;;;17.67;;
76604;SDS011;73179;50.978;16.998;2023-10-13T06:50:53;23.15;;;15.25;;
76604;SDS011;73179;50.978;16.998;2023-10-13T06:53:21;22.40;;;16.30;;
76604;SDS011;73179;50.978;16.998;2023-10-13T06:55:47;22.02;;;15.90;;
76604;SDS011;73179;50.978;16.998;2023-10-13T06:58:18;23.88;;;17.25;;
76604;SDS011;73179;50.978;16.998;2023-10-13T07:00:50;24.77;;;17.05;;
76604;SDS011;73179;50.978;16.998;2023-10-13T07:03:23;22.45;;;18.05;;
76604;SDS011;73179;50.978;16.998;2023-10-13T07:05:50;25.63;;;17.48;;
76604;SDS011;73179;50.978;16.998;2023-10-13T07:08:17;27.13;;;16.98;;
76604;SDS011;73179;50.978;16.998;2023-10-13T07:10:50;22.85;;;16.27;;
76604;SDS011;73179;50.978;16.998;2023-10-13T07:13:32;21.67;;;15.13;;
76604;SDS011;73179;50.978;16.998;2023-10-13T07:16:09;24.63;;;15.90;;
76604;SDS011;73179;50.978;16.998;2023-10-13T07:18:38;21.30;;;15.77;;
76604;SDS011;73179;50.978;16.998;2023-10-13T07:21:27;24.90;;;16.67;;
76604;SDS011;73179;50.978;16.998;2023-10-13T07:23:59;26.75;;;16.13;;
76604;SDS011;73179;50.978;16.998;2023-10-13T07:26:37;22.90;;;15.40;;
76604;SDS011;73179;50.978;16.998;2023-10-13T07:29:11;22.73;;;16.67;;
76604;SDS011;73179;50.978;16.998;2023-10-13T07:31:38;25.33;;;15.23;;
76604;SDS011;73179;50.978;16.998;2023-10-13T07:34:06;26.15;;;16.48;;
76604;SDS011;73179;50.978;16.998;2023-10-13T07:36:39;22.92;;;15.30;;
76604;SDS011;73179;50.978;16.998;2023-10-13T07:39:06;23.23;;;15.77;;
76604;SDS011;73179;50.978;16.998;2023-10-13T07:41:48;20.98;;;15.75;;
76604;SDS011;73179;50.978;16.998;2023-10-13T07:44:23;23.77;;;16.17;;
76604;SDS011;73179;50.978;16.998;2023-10-13T07:46:57;22.48;;;15.82;;
76604;SDS011;73179;50.978;16.998;2023-10-13T07:49:31;21.60;;;15.32;;
76604;SDS011;73179;50.978;16.998;2023-10-13T07:52:03;22.17;;;15.68;;
76604;SDS011;73179;50.978;16.998;2023-10-13T07:55:00;18.33;;;13.43;;
76604;SDS011;73179;50.978;16.998;2023-10-13T07:57:41;17.98;;;13.25;;
76604;SDS011;73179;50.978;16.998;2023-10-13T08:00:23;19.92;;;13.98;;
76604;SDS011;73179;50.978;16.998;2023-10-13T08:03:13;20.88;;;12.90;;
76604;SDS011;73179;50.978;16.998;2023-10-13T08:05:53;19.30;;;13.73;;
76604;SDS011;73179;50.978;16.998;2023-10-13T08:08:38;17.73;;;13.80;;
76604;SDS011;73179;50.978;16.998;2023-10-13T08:11:08;18.15;;;13.23;;
76604;SDS011;73179;50.978;16.998;2023-10-13T08:13:57;17.73;;;11.90;;
76604;SDS011;73179;50.978;16.998;2023-10-13T08:16:47;17.10;;;11.13;;
76604;SDS011;73179;50.978;16.998;2023-10-13T08:19:14;16.08;;;11.63;;
76604;SDS011;73179;50.978;16.998;2023-10-13T08:21:42;15.25;;;11.70;;
76604;SDS011;73179;50.978;16.998;2023-10-13T08:24:31;15.13;;;11.55;;
76604;SDS011;73179;50.978;16.998;2023-10-13T08:27:04;14.23;;;11.43;;
76604;SDS011;73179;50.978;16.998;2023-10-13T08:29:42;15.05;;;11.25;;
76604;SDS011;73179;50.978;16.998;2023-10-13T08:32:16;13.93;;;10.50;;
76604;SDS011;73179;50.978;16.998;2023-10-13T08:34:48;16.65;;;11.95;;
76604;SDS011;73179;50.978;16.998;2023-10-13T08:37:34;12.13;;;9.65;;
76604;SDS011;73179;50.978;16.998;2023-10-13T08:40:21;15.55;;;10.82;;
76604;SDS011;73179;50.978;16.998;2023-10-13T08:43:06;12.95;;;10.10;;
76604;SDS011;73179;50.978;16.998;2023-10-13T08:45:40;12.38;;;9.60;;
76604;SDS011;73179;50.978;16.998;2023-10-13T08:48:08;13.88;;;9.95;;
76604;SDS011;73179;50.978;16.998;2023-10-13T08:50:46;11.90;;;9.52;;
76604;SDS011;73179;50.978;16.998;2023-10-13T08:53:24;14.20;;;9.25;;
76604;SDS011;73179;50.978;16.998;2023-10-13T08:58:49;13.90;;;9.23;;
76604;SDS011;73179;50.978;16.998;2023-10-13T09:04:10;11.98;;;8.77;;
76604;SDS011;73179;50.978;16.998;2023-10-13T09:07:00;11.23;;;8.57;;
76604;SDS011;73179;50.978;16.998;2023-10-13T09:12:23;11.50;;;8.50;;
76604;SDS011;73179;50.978;16.998;2023-10-13T09:15:02;12.13;;;9.02;;
76604;SDS011;73179;50.978;16.998;2023-10-13T09:17:31;10.02;;;8.07;;
76604;SDS011;73179;50.978;16.998;2023-10-13T09:20:06;11.80;;;8.65;;
76604;SDS011;73179;50.978;16.998;2023-10-13T09:22:51;11.07;;;8.93;;
76604;SDS011;73179;50.978;16.998;2023-10-13T09:25:30;10.18;;;8.75;;
76604;SDS011;73179;50.978;16.998;2023-10-13T09:28:02;13.75;;;9.77;;
76604;SDS011;73179;50.978;16.998;2023-10-13T09:30:44;11.43;;;8.63;;
76604;SDS011;73179;50.978;16.998;2023-10-13T09:33:11;9.90;;;8.07;;
76604;SDS011;73179;50.978;16.998;2023-10-13T09:35:46;9.35;;;8.02;;
76604;SDS011;73179;50.978;16.998;2023-10-13T09:38:15;11.43;;;9.32;;
76604;SDS011;73179;50.978;16.998;2023-10-13T09:40:42;9.57;;;8.52;;
76604;SDS011;73179;50.978;16.998;2023-10-13T09:43:16;9.10;;;7.43;;
76604;SDS011;73179;50.978;16.998;2023-10-13T09:45:43;9.88;;;7.80;;
76604;SDS011;73179;50.978;16.998;2023-10-13T09:48:37;9.60;;;7.10;;
76604;SDS011;73179;50.978;16.998;2023-10-13T09:51:12;8.38;;;6.80;;
76604;SDS011;73179;50.978;16.998;2023-10-13T09:53:40;10.05;;;7.57;;
76604;SDS011;73179;50.978;16.998;2023-10-13T09:56:14;7.75;;;6.63;;
76604;SDS011;73179;50.978;16.998;2023-10-13T09:58:57;9.25;;;6.68;;
76604;SDS011;73179;50.978;16.998;2023-10-13T10:01:33;8.75;;;6.78;;
76604;SDS011;73179;50.978;16.998;2023-10-13T10:04:07;10.35;;;7.07;;
76604;SDS011;73179;50.978;16.998;2023-10-13T10:06:35;6.65;;;5.72;;
76604;SDS011;73179;50.978;16.998;2023-10-13T10:09:07;6.80;;;6.10;;
76604;SDS011;73179;50.978;16.998;2023-10-13T10:17:26;7.63;;;6.07;;
76604;SDS011;73179;50.978;16.998;2023-10-13T10:19:55;6.75;;;5.07;;
76604;SDS011;73179;50.978;16.998;2023-10-13T10:22:28;8.98;;;6.03;;
76604;SDS011;73179;50.978;16.998;2023-10-13T10:25:10;8.80;;;6.13;;
76604;SDS011;73179;50.978;16.998;2023-10-13T10:27:56;7.28;;;6.45;;
76604;SDS011;73179;50.978;16.998;2023-10-13T10:30:27;6.68;;;5.28;;
76604;SDS011;73179;50.978;16.998;2023-10-13T10:32:57;8.10;;;6.18;;
76604;SDS011;73179;50.978;16.998;2023-10-13T10:35:32;6.78;;;6.00;;
76604;SDS011;73179;50.978;16.998;2023-10-13T10:41:39;6.53;;;5.90;;
76604;SDS011;73179;50.978;16.998;2023-10-13T10:44:20;8.75;;;6.25;;
76604;SDS011;73179;50.978;16.998;2023-10-13T10:47:15;9.45;;;6.97;;
76604;SDS011;73179;50.978;16.998;2023-10-13T10:50:00;8.55;;;6.95;;
76604;SDS011;73179;50.978;16.998;2023-10-13T10:52:33;7.47;;;6.30;;
76604;SDS011;73179;50.978;16.998;2023-10-13T10:55:03;14.43;;;7.20;;
76604;SDS011;73179;50.978;16.998;2023-10-13T10:57:33;7.13;;;6.43;;
76604;SDS011;73179;50.978;16.998;2023-10-13T11:00:03;6.82;;;6.18;;
76604;SDS011;73179;50.978;16.998;2023-10-13T11:02:40;9.60;;;6.55;;
76604;SDS011;73179;50.978;16.998;2023-10-13T11:05:07;7.80;;;6.40;;
76604;SDS011;73179;50.978;16.998;2023-10-13T11:07:35;7.78;;;6.30;;
76604;SDS011;73179;50.978;16.998;2023-10-13T11:10:08;9.23;;;6.35;;
76604;SDS011;73179;50.978;16.998;2023-10-13T11:12:53;7.72;;;6.32;;
76604;SDS011;73179;50.978;16.998;2023-10-13T11:15:20;7.32;;;5.72;;
76604;SDS011;73179;50.978;16.998;2023-10-13T11:17:51;7.78;;;5.55;;
76604;SDS011;73179;50.978;16.998;2023-10-13T11:20:21;6.13;;;5.40;;
76604;SDS011;73179;50.978;16.998;2023-10-13T11:23:00;6.75;;;5.30;;
76604;SDS011;73179;50.978;16.998;2023-10-13T11:25:31;7.90;;;5.65;;
76604;SDS011;73179;50.978;16.998;2023-10-13T11:28:15;7.32;;;5.78;;
76604;SDS011;73179;50.978;16.998;2023-10-13T11:31:01;7.25;;;5.65;;
76604;SDS011;73179;50.978;16.998;2023-10-13T11:33:36;14.15;;;6.53;;
76604;SDS011;73179;50.978;16.998;2023-10-13T11:36:12;10.60;;;6.22;;
76604;SDS011;73179;50.978;16.998;2023-10-13T11:38:48;7.65;;;6.15;;
76604;SDS011;73179;50.978;16.998;2023-10-13T11:41:14;8.07;;;5.57;;
76604;SDS011;73179;50.978;16.998;2023-10-13T11:43:42;7.65;;;6.68;;
76604;SDS011;73179;50.978;16.998;2023-10-13T11:46:20;7.68;;;5.57;;
76604;SDS011;73179;50.978;16.998;2023-10-13T11:49:02;8.93;;;5.30;;
76604;SDS011;73179;50.978;16.998;2023-10-13T11:51:33;6.43;;;5.30;;
76604;SDS011;73179;50.978;16.998;2023-10-13T11:54:03;7.30;;;5.93;;
76604;SDS011;73179;50.978;16.998;2023-10-13T11:56:30;7.03;;;6.28;;
76604;SDS011;73179;50.978;16.998;2023-10-13T11:58:55;6.57;;;5.53;;
76604;SDS011;73179;50.978;16.998;2023-10-13T12:01:27;6.38;;;5.00;;
76604;SDS011;73179;50.978;16.998;2023-10-13T12:04:11;7.18;;;5.60;;
76604;SDS011;73179;50.978;16.998;2023-10-13T12:06:56;14.10;;;5.45;;
76604;SDS011;73179;50.978;16.998;2023-10-13T12:09:40;6.38;;;5.63;;
76604;SDS011;73179;50.978;16.998;2023-10-13T12:12:17;9.88;;;5.78;;
76604;SDS011;73179;50.978;16.998;2023-10-13T12:14:45;7.07;;;5.05;;
76604;SDS011;73179;50.978;16.998;2023-10-13T12:17:28;8.50;;;5.35;;
76604;SDS011;73179;50.978;16.998;2023-10-13T12:20:00;6.68;;;4.80;;
76604;SDS011;73179;50.978;16.998;2023-10-13T12:22:30;6.30;;;4.78;;
76604;SDS011;73179;50.978;16.998;2023-10-13T12:25:16;5.60;;;4.78;;
76604;SDS011;73179;50.978;16.998;2023-10-13T12:27:58;10.10;;;6.75;;
76604;SDS011;73179;50.978;16.998;2023-10-13T12:30:38;6.10;;;5.07;;
76604;SDS011;73179;50.978;16.998;2023-10-13T12:33:20;5.05;;;4.20;;
76604;SDS011;73179;50.978;16.998;2023-10-13T12:35:57;5.70;;;3.78;;
76604;SDS011;73179;50.978;16.998;2023-10-13T12:38:30;7.68;;;4.50;;
76604;SDS011;73179;50.978;16.998;2023-10-13T12:41:17;4.10;;;3.70;;
76604;SDS011;73179;50.978;16.998;2023-10-13T12:44:03;8.77;;;4.47;;
76604;SDS011;73179;50.978;16.998;2023-10-13T12:46:49;5.50;;;3.92;;
76604;SDS011;73179;50.978;16.998;2023-10-13T12:49:34;5.80;;;3.57;;
76604;SDS011;73179;50.978;16.998;2023-10-13T12:52:07;4.38;;;3.95;;
76604;SDS011;73179;50.978;16.998;2023-10-13T12:54:42;5.07;;;3.80;;
76604;SDS011;73179;50.978;16.998;2023-10-13T12:57:15;4.88;;;3.70;;
76604;SDS011;73179;50.978;16.998;2023-10-13T12:59:42;4.40;;;3.83;;
76604;SDS011;73179;50.978;16.998;2023-10-13T13:02:08;7.50;;;4.00;;
76604;SDS011;73179;50.978;16.998;2023-10-13T13:04:43;5.80;;;3.97;;
76604;SDS011;73179;50.978;16.998;2023-10-13T13:07:10;4.68;;;3.88;;
76604;SDS011;73179;50.978;16.998;2023-10-13T13:09:40;6.50;;;3.90;;
76604;SDS011;73179;50.978;16.998;2023-10-13T13:12:06;4.60;;;3.70;;
76604;SDS011;73179;50.978;16.998;2023-10-13T13:14:33;5.28;;;3.83;;
76604;SDS011;73179;50.978;16.998;2023-10-13T13:17:01;5.40;;;3.72;;
76604;SDS011;73179;50.978;16.998;2023-10-13T13:19:34;7.43;;;4.25;;
76604;SDS011;73179;50.978;16.998;2023-10-13T13:24:30;5.43;;;3.70;;
76604;SDS011;73179;50.978;16.998;2023-10-13T13:26:57;5.82;;;3.50;;
76604;SDS011;73179;50.978;16.998;2023-10-13T13:29:29;5.30;;;3.72;;
76604;SDS011;73179;50.978;16.998;2023-10-13T13:31:55;5.40;;;3.67;;
76604;SDS011;73179;50.978;16.998;2023-10-13T13:34:22;5.30;;;3.38;;
76604;SDS011;73179;50.978;16.998;2023-10-13T13:36:48;6.68;;;5.03;;
76604;SDS011;73179;50.978;16.998;2023-10-13T13:39:21;6.63;;;4.05;;
76604;SDS011;73179;50.978;16.998;2023-10-13T13:41:56;5.20;;;3.75;;
76604;SDS011;73179;50.978;16.998;2023-10-13T13:44:26;5.45;;;3.65;;
76604;SDS011;73179;50.978;16.998;2023-10-13T13:46:56;7.57;;;3.80;;
76604;SDS011;73179;50.978;16.998;2023-10-13T13:49:22;7.38;;;3.50;;
76604;SDS011;73179;50.978;16.998;2023-10-13T13:52:05;6.20;;;4.05;;
76604;SDS011;73179;50.978;16.998;2023-10-13T13:54:35;5.78;;;3.83;;
76604;SDS011;73179;50.978;16.998;2023-10-13T13:57:01;5.50;;;3.83;;
76604;SDS011;73179;50.978;16.998;2023-10-13T13:59:28;6.75;;;4.00;;
76604;SDS011;73179;50.978;16.998;2023-10-13T14:02:00;5.50;;;3.60;;
76604;SDS011;73179;50.978;16.998;2023-10-13T14:04:32;5.38;;;3.72;;
76604;SDS011;73179;50.978;16.998;2023-10-13T14:06:58;6.72;;;3.70;;
76604;SDS011;73179;50.978;16.998;2023-10-13T14:09:25;5.78;;;4.07;;
76604;SDS011;73179;50.978;16.998;2023-10-13T14:12:06;5.80;;;4.35;;
76604;SDS011;73179;50.978;16.998;2023-10-13T14:14:50;5.40;;;3.50;;
76604;SDS011;73179;50.978;16.998;2023-10-13T14:17:24;5.13;;;4.10;;
76604;SDS011;73179;50.978;16.998;2023-10-13T14:20:01;6.25;;;4.10;;
76604;SDS011;73179;50.978;16.998;2023-10-13T14:22:40;7.18;;;3.78;;
76604;SDS011;73179;50.978;16.998;2023-10-13T14:25:07;5.72;;;3.90;;
76604;SDS011;73179;50.978;16.998;2023-10-13T14:27:42;6.38;;;3.97;;
76604;SDS011;73179;50.978;16.998;2023-10-13T14:30:09;8.77;;;3.72;;
76604;SDS011;73179;50.978;16.998;2023-10-13T14:32:35;8.93;;;5.07;;
76604;SDS011;73179;50.978;16.998;2023-10-13T14:35:06;7.00;;;4.30;;
76604;SDS011;73179;50.978;16.998;2023-10-13T14:37:41;6.63;;;4.38;;
76604;SDS011;73179;50.978;16.998;2023-10-13T14:40:08;6.57;;;4.30;;
76604;SDS011;73179;50.978;16.998;2023-10-13T14:42:49;9.13;;;4.45;;
76604;SDS011;73179;50.978;16.998;2023-10-13T14:45:16;9.70;;;4.72;;
76604;SDS011;73179;50.978;16.998;2023-10-13T14:47:42;7.97;;;4.90;;
76604;SDS011;73179;50.978;16.998;2023-10-13T14:50:10;8.40;;;5.05;;
76604;SDS011;73179;50.978;16.998;2023-10-13T14:52:45;7.03;;;4.32;;
76604;SDS011;73179;50.978;16.998;2023-10-13T14:55:14;12.65;;;6.47;;
76604;SDS011;73179;50.978;16.998;2023-10-13T14:57:47;9.30;;;4.50;;
76604;SDS011;73179;50.978;16.998;2023-10-13T15:00:16;10.32;;;5.07;;
76604;SDS011;73179;50.978;16.998;2023-10-13T15:02:51;8.43;;;4.82;;
76604;SDS011;73179;50.978;16.998;2023-10-13T15:05:18;8.43;;;4.68;;
76604;SDS011;73179;50.978;16.998;2023-10-13T15:07:44;12.85;;;6.10;;
76604;SDS011;73179;50.978;16.998;2023-10-13T15:10:12;9.73;;;5.68;;
76604;SDS011;73179;50.978;16.998;2023-10-13T15:12:40;11.50;;;6.47;;
76604;SDS011;73179;50.978;16.998;2023-10-13T15:15:08;8.88;;;5.25;;
76604;SDS011;73179;50.978;16.998;2023-10-13T15:17:47;9.38;;;5.07;;
76604;SDS011;73179;50.978;16.998;2023-10-13T15:20:14;9.00;;;5.18;;
76604;SDS011;73179;50.978;16.998;2023-10-13T15:22:45;8.98;;;5.82;;
76604;SDS011;73179;50.978;16.998;2023-10-13T15:25:13;9.35;;;5.05;;
76604;SDS011;73179;50.978;16.998;2023-10-13T15:27:58;11.02;;;5.18;;